Time;durP1;ratioP1;P1;durP2;ratioP2;P2;SDS_P1;SDS_P2;PMS_P1;PMS_P2;Temp;Humidity;BMP_temperature;BMP_pressure;BME280_temperature;BME280_humidity;BME280_pressure;Samples;Min_cycle;Max_cycle;Signal;HPM_P1;HPM_P2
2021/08/22 00:00:08;;;;;;;9.67;8.77;;;;;;;;;;5010882;28;20402;-49
2021/08/22 00:02:34;;;;;;;10.40;9.37;;;;;;;;;;5010862;28;20801;-49
2021/08/22 00:05:00;;;;;;;9.77;8.80;;;;;;;;;;5011079;28;20461;-49
2021/08/22 00:07:26;;;;;;;9.63;8.60;;;;;;;;;;5010933;28;20459;-48
2021/08/22 00:09:52;;;;;;;10.40;9.40;;;;;;;;;;5010687;28;20420;-49
2021/08/22 00:12:18;;;;;;;9.73;8.80;;;;;;;;;;5010940;28;20393;-48
2021/08/22 00:14:44;;;;;;;11.70;9.60;;;;;;;;;;5011122;28;20408;-48
2021/08/22 00:17:10;;;;;;;11.03;9.20;;;;;;;;;;5010896;28;20443;-48
2021/08/22 00:19:36;;;;;;;11.03;9.83;;;;;;;;;;5010762;28;20404;-49
2021/08/22 00:22:01;;;;;;;15.27;9.83;;;;;;;;;;5011040;28;20411;-49
2021/08/22 00:24:27;;;;;;;9.83;8.83;;;;;;;;;;5011163;28;20424;-49
2021/08/22 00:26:53;;;;;;;9.87;8.97;;;;;;;;;;5010920;28;20400;-50
2021/08/22 00:29:19;;;;;;;12.87;9.63;;;;;;;;;;5010631;28;20464;-53
2021/08/22 00:31:45;;;;;;;10.80;9.90;;;;;;;;;;5010762;28;20886;-51
2021/08/22 00:34:11;;;;;;;9.50;8.60;;;;;;;;;;5010716;28;21000;-50
2021/08/22 00:36:37;;;;;;;11.50;10.37;;;;;;;;;;5010713;28;20402;-51
2021/08/22 00:39:04;;;;;;;10.73;9.67;;;;;;;;;;5010664;28;20915;-51
2021/08/22 00:41:30;;;;;;;10.80;9.83;;;;;;;;;;5010588;28;20886;-49
2021/08/22 00:43:56;;;;;;;9.60;8.80;;;;;;;;;;5010668;28;20423;-49
2021/08/22 00:46:22;;;;;;;12.27;11.07;;;;;;;;;;5010566;28;20958;-49
2021/08/22 00:48:48;;;;;;;10.63;9.70;;;;;;;;;;5010381;28;20782;-49
2021/08/22 00:51:15;;;;;;;11.23;10.07;;;;;;;;;;5010440;28;20385;-49
2021/08/22 00:53:42;;;;;;;11.33;10.23;;;;;;;;;;5010513;28;20451;-49
2021/08/22 00:56:09;;;;;;;10.87;9.90;;;;;;;;;;5010533;28;20401;-50
2021/08/22 00:58:35;;;;;;;10.10;9.10;;;;;;;;;;5010371;28;20411;-49
2021/08/22 01:01:02;;;;;;;11.17;10.07;;;;;;;;;;5010081;28;20569;-49
2021/08/22 01:03:42;;;;;;;10.27;9.30;;;;;;;;;;5009767;28;20480;-48
2021/08/22 01:06:08;;;;;;;9.27;8.37;;;;;;;;;;5010169;28;20444;-49
2021/08/22 01:08:36;;;;;;;11.33;10.17;;;;;;;;;;5010223;28;20451;-48
2021/08/22 01:11:05;;;;;;;10.13;9.23;;;;;;;;;;5010762;28;20394;-52
2021/08/22 01:13:34;;;;;;;13.53;9.20;;;;;;;;;;5010204;28;20559;-48
2021/08/22 01:16:02;;;;;;;10.37;9.30;;;;;;;;;;5010532;28;20410;-49
2021/08/22 01:18:28;;;;;;;12.10;10.90;;;;;;;;;;5010096;28;20408;-49
2021/08/22 01:21:06;;;;;;;10.97;9.87;;;;;;;;;;5012218;28;20407;-49
2021/08/22 01:23:34;;;;;;;11.83;10.20;;;;;;;;;;5013727;28;20511;-51
2021/08/22 01:26:01;;;;;;;12.63;11.33;;;;;;;;;;5013733;28;20403;-49
2021/08/22 01:28:28;;;;;;;14.77;11.20;;;;;;;;;;5013398;28;20826;-49
2021/08/22 01:30:55;;;;;;;12.37;10.53;;;;;;;;;;5013745;28;20790;-48
2021/08/22 01:33:21;;;;;;;11.97;10.87;;;;;;;;;;5013513;28;20427;-49
2021/08/22 01:35:48;;;;;;;14.93;12.00;;;;;;;;;;5013646;28;20455;-48
2021/08/22 01:38:14;;;;;;;13.03;10.73;;;;;;;;;;5013480;28;20403;-48
2021/08/22 01:40:41;;;;;;;13.20;9.73;;;;;;;;;;5013362;28;20411;-48
2021/08/22 01:43:07;;;;;;;9.43;8.60;;;;;;;;;;5013412;28;20420;-51
2021/08/22 01:45:34;;;;;;;10.07;9.10;;;;;;;;;;5013570;28;20378;-49
2021/08/22 01:48:00;;;;;;;12.73;8.70;;;;;;;;;;5013321;28;20417;-48
2021/08/22 01:50:26;;;;;;;8.70;7.90;;;;;;;;;;5013225;28;20425;-48
2021/08/22 01:52:57;;;;;;;8.97;6.10;;;;;;;;;;5013149;28;20415;-48
2021/08/22 01:55:23;;;;;;;9.30;6.10;;;;;;;;;;5013920;28;20373;-48
2021/08/22 01:57:49;;;;;;;5.83;5.17;;;;;;;;;;5013309;28;20493;-48
2021/08/22 02:00:15;;;;;;;6.80;6.03;;;;;;;;;;5013076;28;20469;-48
2021/08/22 02:02:45;;;;;;;5.70;5.13;;;;;;;;;;5013074;28;20402;-48
2021/08/22 02:05:12;;;;;;;6.90;6.17;;;;;;;;;;5013243;28;20482;-48
2021/08/22 02:07:38;;;;;;;6.83;5.47;;;;;;;;;;5012958;28;20426;-48
2021/08/22 02:10:06;;;;;;;6.60;6.00;;;;;;;;;;5013048;28;20541;-49
2021/08/22 02:12:32;;;;;;;8.57;5.63;;;;;;;;;;5012906;28;20488;-51
2021/08/22 02:15:04;;;;;;;16.73;6.20;;;;;;;;;;5012971;28;20382;-49
2021/08/22 02:17:33;;;;;;;9.47;5.80;;;;;;;;;;5012845;28;20385;-48
2021/08/22 02:19:59;;;;;;;7.07;6.33;;;;;;;;;;5012592;28;20408;-48
2021/08/22 02:22:26;;;;;;;7.70;6.17;;;;;;;;;;5012676;28;20510;-48
2021/08/22 02:24:52;;;;;;;7.07;5.83;;;;;;;;;;5012896;28;20884;-48
2021/08/22 02:27:18;;;;;;;7.97;6.30;;;;;;;;;;5012646;28;20957;-51
2021/08/22 02:29:53;;;;;;;6.93;5.93;;;;;;;;;;5012496;28;20384;-49
2021/08/22 02:32:19;;;;;;;8.70;6.30;;;;;;;;;;5011481;28;20953;-48
2021/08/22 02:34:45;;;;;;;9.03;5.47;;;;;;;;;;5012469;28;20497;-48
2021/08/22 02:37:11;;;;;;;11.90;6.10;;;;;;;;;;5012531;28;20421;-47
2021/08/22 02:39:38;;;;;;;5.57;5.07;;;;;;;;;;5012272;28;20441;-49
2021/08/22 02:42:05;;;;;;;4.67;4.27;;;;;;;;;;5012350;28;20490;-49
2021/08/22 02:44:31;;;;;;;7.60;5.17;;;;;;;;;;5012256;28;20488;-49
2021/08/22 02:46:57;;;;;;;5.10;4.60;;;;;;;;;;5012170;28;20550;-50
2021/08/22 02:49:23;;;;;;;3.87;3.57;;;;;;;;;;5011876;28;20381;-49
2021/08/22 02:51:49;;;;;;;4.60;4.00;;;;;;;;;;5012174;28;20416;-49
2021/08/22 02:54:15;;;;;;;5.00;3.83;;;;;;;;;;5011953;28;20439;-48
2021/08/22 02:56:41;;;;;;;4.10;3.40;;;;;;;;;;5012139;28;20884;-48
2021/08/22 02:59:07;;;;;;;3.90;3.60;;;;;;;;;;5011886;28;20750;-50
2021/08/22 03:01:33;;;;;;;4.40;4.00;;;;;;;;;;5011936;28;20399;-51
2021/08/22 03:03:59;;;;;;;6.13;3.03;;;;;;;;;;5011760;28;20454;-50
2021/08/22 03:06:25;;;;;;;4.77;3.90;;;;;;;;;;5011958;28;20384;-50
2021/08/22 03:08:51;;;;;;;3.07;2.77;;;;;;;;;;5011574;28;20447;-51
2021/08/22 03:11:20;;;;;;;4.20;3.80;;;;;;;;;;5011814;28;20377;-50
2021/08/22 03:13:46;;;;;;;4.27;3.90;;;;;;;;;;5011667;28;20466;-48
2021/08/22 03:16:12;;;;;;;5.10;4.40;;;;;;;;;;5011783;28;20404;-48
2021/08/22 03:18:38;;;;;;;6.00;3.67;;;;;;;;;;5011461;28;20388;-48
2021/08/22 03:21:04;;;;;;;5.47;4.33;;;;;;;;;;5011761;28;20897;-48
2021/08/22 03:23:30;;;;;;;3.67;3.37;;;;;;;;;;5011646;28;20892;-48
2021/08/22 03:25:56;;;;;;;3.93;3.63;;;;;;;;;;5011799;28;20417;-48
2021/08/22 03:28:22;;;;;;;7.53;4.03;;;;;;;;;;5011251;28;20458;-48
2021/08/22 03:30:51;;;;;;;5.27;4.87;;;;;;;;;;5011502;28;20452;-49
2021/08/22 03:33:17;;;;;;;5.17;4.60;;;;;;;;;;5011510;28;20791;-50
2021/08/22 03:35:43;;;;;;;4.70;4.30;;;;;;;;;;5011389;28;20408;-51
2021/08/22 03:38:09;;;;;;;7.70;4.87;;;;;;;;;;5011369;28;20863;-51
2021/08/22 03:40:35;;;;;;;7.63;4.83;;;;;;;;;;5011146;28;20392;-48
2021/08/22 03:43:01;;;;;;;7.23;5.47;;;;;;;;;;5010989;28;20405;-48
2021/08/22 03:45:27;;;;;;;6.50;5.47;;;;;;;;;;5011239;28;20376;-48
2021/08/22 03:47:53;;;;;;;8.63;5.77;;;;;;;;;;5011267;28;20437;-48
2021/08/22 03:50:19;;;;;;;6.33;5.73;;;;;;;;;;5011044;28;20448;-49
2021/08/22 03:52:49;;;;;;;10.63;7.53;;;;;;;;;;5011154;28;20412;-49
2021/08/22 03:55:15;;;;;;;7.67;6.87;;;;;;;;;;5011367;28;20883;-48
2021/08/22 03:57:41;;;;;;;8.57;7.10;;;;;;;;;;5011484;28;20410;-49
2021/08/22 04:00:07;;;;;;;10.80;7.77;;;;;;;;;;5010875;28;20395;-48
2021/08/22 04:02:35;;;;;;;12.73;10.70;;;;;;;;;;5011132;28;20434;-48
2021/08/22 04:05:02;;;;;;;10.57;8.90;;;;;;;;;;5011065;28;20862;-50
2021/08/22 04:07:29;;;;;;;15.40;9.40;;;;;;;;;;5011230;28;20828;-48
2021/08/22 04:09:55;;;;;;;9.80;8.90;;;;;;;;;;5010878;28;20433;-52
2021/08/22 04:12:21;;;;;;;14.67;11.13;;;;;;;;;;5011043;28;20423;-50
2021/08/22 04:14:47;;;;;;;13.03;9.80;;;;;;;;;;5010874;28;20500;-48
2021/08/22 04:17:13;;;;;;;12.70;11.37;;;;;;;;;;5011073;28;20459;-50
2021/08/22 04:19:41;;;;;;;15.93;10.63;;;;;;;;;;5010647;28;20380;-51
2021/08/22 04:22:07;;;;;;;14.97;10.87;;;;;;;;;;5010971;28;20746;-51
2021/08/22 04:24:35;;;;;;;16.50;11.70;;;;;;;;;;5010907;28;20388;-51
2021/08/22 04:27:04;;;;;;;14.37;12.67;;;;;;;;;;5010829;28;20922;-51
2021/08/22 04:29:30;;;;;;;15.13;12.10;;;;;;;;;;5010479;28;20385;-49
2021/08/22 04:31:57;;;;;;;17.30;14.93;;;;;;;;;;5010868;28;20457;-48
2021/08/22 04:34:23;;;;;;;17.57;13.87;;;;;;;;;;5010705;28;20407;-49
2021/08/22 04:36:49;;;;;;;17.43;14.30;;;;;;;;;;5010843;28;20469;-50
2021/08/22 04:39:18;;;;;;;18.87;16.03;;;;;;;;;;5010844;28;20411;-50
2021/08/22 04:41:45;;;;;;;17.43;15.70;;;;;;;;;;5010595;28;20435;-50
2021/08/22 04:44:11;;;;;;;16.80;15.00;;;;;;;;;;5010678;28;20409;-49
2021/08/22 04:46:37;;;;;;;16.67;14.73;;;;;;;;;;5010695;28;20883;-48
2021/08/22 04:49:03;;;;;;;16.67;14.97;;;;;;;;;;5010371;28;20473;-49
2021/08/22 04:51:29;;;;;;;18.37;14.97;;;;;;;;;;5010525;28;20399;-48
2021/08/22 04:53:56;;;;;;;18.60;15.53;;;;;;;;;;5010404;28;20482;-48
2021/08/22 04:56:24;;;;;;;18.27;15.50;;;;;;;;;;5013142;28;20401;-48
2021/08/22 04:58:50;;;;;;;16.07;14.33;;;;;;;;;;5014309;28;20779;-51
2021/08/22 05:01:16;;;;;;;19.57;14.67;;;;;;;;;;5014139;28;20556;-51
2021/08/22 05:03:42;;;;;;;18.33;14.70;;;;;;;;;;5014201;28;20486;-48
2021/08/22 05:06:09;;;;;;;17.90;14.83;;;;;;;;;;5014190;28;20606;-48
2021/08/22 05:08:35;;;;;;;19.87;15.40;;;;;;;;;;5013877;28;20480;-50
2021/08/22 05:11:01;;;;;;;17.67;14.73;;;;;;;;;;5013915;28;20407;-49
2021/08/22 05:13:28;;;;;;;18.50;16.13;;;;;;;;;;5013918;28;20527;-50
2021/08/22 05:15:54;;;;;;;18.17;15.53;;;;;;;;;;5013918;28;20380;-48
2021/08/22 05:18:23;;;;;;;20.23;15.57;;;;;;;;;;5013805;28;20407;-51
2021/08/22 05:20:50;;;;;;;20.63;15.50;;;;;;;;;;5013790;28;20410;-50
2021/08/22 05:23:16;;;;;;;26.83;15.63;;;;;;;;;;5013816;28;20470;-48
2021/08/22 05:25:42;;;;;;;17.87;14.83;;;;;;;;;;5013719;28;20382;-51
2021/08/22 05:28:09;;;;;;;17.53;15.00;;;;;;;;;;5013605;28;20424;-50
2021/08/22 05:30:35;;;;;;;18.73;15.73;;;;;;;;;;5013583;28;20415;-49
2021/08/22 05:33:03;;;;;;;307.90;93.93;;;;;;;;;;5013662;28;20418;-47
2021/08/22 05:35:29;;;;;;;20.30;16.17;;;;;;;;;;5013622;28;20403;-49
2021/08/22 05:37:55;;;;;;;20.33;15.57;;;;;;;;;;5013709;28;20393;-49
2021/08/22 05:40:22;;;;;;;20.47;14.67;;;;;;;;;;5013181;28;20386;-49
2021/08/22 05:42:48;;;;;;;20.53;14.47;;;;;;;;;;5013517;28;20453;-48
2021/08/22 05:45:14;;;;;;;18.03;14.90;;;;;;;;;;5013546;28;20909;-49
2021/08/22 05:47:40;;;;;;;19.37;15.90;;;;;;;;;;5013382;28;20429;-48
2021/08/22 05:50:06;;;;;;;16.90;14.27;;;;;;;;;;5013219;28;20957;-48
2021/08/22 05:52:36;;;;;;;20.70;14.43;;;;;;;;;;5013320;28;20445;-48
2021/08/22 05:55:06;;;;;;;17.00;15.20;;;;;;;;;;5040283;22;20507;-45
2021/08/22 05:57:32;;;;;;;20.97;14.03;;;;;;;;;;5012571;28;20482;-45
2021/08/22 05:59:58;;;;;;;21.10;13.93;;;;;;;;;;5013323;28;20951;-45
2021/08/22 06:02:24;;;;;;;17.03;13.30;;;;;;;;;;5013373;28;20413;-45
2021/08/22 06:04:50;;;;;;;14.00;12.50;;;;;;;;;;5013281;28;20434;-45
2021/08/22 06:07:19;;;;;;;17.03;14.00;;;;;;;;;;5013028;28;20407;-46
2021/08/22 06:09:46;;;;;;;17.13;15.13;;;;;;;;;;5013063;28;20387;-45
2021/08/22 06:12:12;;;;;;;17.50;13.27;;;;;;;;;;5013099;28;20374;-45
2021/08/22 06:14:39;;;;;;;16.60;14.30;;;;;;;;;;5013036;28;20782;-46
2021/08/22 06:17:05;;;;;;;20.37;14.40;;;;;;;;;;5012874;28;20852;-44
2021/08/22 06:19:31;;;;;;;18.70;14.93;;;;;;;;;;5012725;28;20396;-44
2021/08/22 06:21:57;;;;;;;16.63;14.60;;;;;;;;;;5012792;28;20869;-44
2021/08/22 06:24:24;;;;;;;16.07;13.77;;;;;;;;;;5012746;28;20466;-45
2021/08/22 06:26:50;;;;;;;17.90;14.20;;;;;;;;;;5012610;28;20408;-46
2021/08/22 06:29:16;;;;;;;16.20;13.20;;;;;;;;;;5012432;28;20429;-45
2021/08/22 06:31:43;;;;;;;15.77;12.60;;;;;;;;;;5012527;28;20506;-46
2021/08/22 06:34:10;;;;;;;16.70;14.20;;;;;;;;;;5012609;28;20470;-45
2021/08/22 06:36:39;;;;;;;16.03;13.10;;;;;;;;;;5012599;28;20404;-45
2021/08/22 06:39:05;;;;;;;19.53;14.93;;;;;;;;;;5012353;28;20466;-46
2021/08/22 06:41:31;;;;;;;15.70;13.07;;;;;;;;;;5012214;28;20432;-45
2021/08/22 06:43:58;;;;;;;16.07;13.00;;;;;;;;;;5012495;28;20565;-45
2021/08/22 06:46:24;;;;;;;14.87;12.90;;;;;;;;;;5012596;28;20487;-45
2021/08/22 06:48:52;;;;;;;16.53;13.40;;;;;;;;;;5012059;28;20852;-46
2021/08/22 06:51:18;;;;;;;16.90;13.73;;;;;;;;;;5012230;28;20444;-45
2021/08/22 06:53:44;;;;;;;16.03;12.10;;;;;;;;;;5012150;28;20862;-45
2021/08/22 06:56:10;;;;;;;16.83;14.90;;;;;;;;;;5012115;28;20799;-45
2021/08/22 06:58:36;;;;;;;15.83;11.00;;;;;;;;;;5012201;28;20373;-46
2021/08/22 07:01:02;;;;;;;15.43;12.60;;;;;;;;;;5012156;28;20804;-44
2021/08/22 07:03:28;;;;;;;17.77;14.80;;;;;;;;;;5012051;28;20461;-46
2021/08/22 07:05:55;;;;;;;20.10;14.33;;;;;;;;;;5012122;28;20400;-45
2021/08/22 07:08:22;;;;;;;17.67;13.20;;;;;;;;;;5011722;28;20456;-45
2021/08/22 07:10:48;;;;;;;19.17;14.80;;;;;;;;;;5011853;28;20409;-46
2021/08/22 07:13:14;;;;;;;22.73;15.57;;;;;;;;;;5011895;28;20401;-45
2021/08/22 07:15:40;;;;;;;22.70;17.03;;;;;;;;;;5011870;28;20458;-44
2021/08/22 07:18:06;;;;;;;32.83;16.37;;;;;;;;;;5011085;28;20463;-45
2021/08/22 07:20:33;;;;;;;17.40;14.60;;;;;;;;;;5011764;28;20487;-45
2021/08/22 07:23:00;;;;;;;19.23;15.33;;;;;;;;;;5011194;28;20414;-46
2021/08/22 07:25:27;;;;;;;18.03;15.07;;;;;;;;;;5011653;28;20446;-45
2021/08/22 07:27:53;;;;;;;17.97;14.30;;;;;;;;;;5010864;28;20516;-45
2021/08/22 07:30:19;;;;;;;23.47;18.27;;;;;;;;;;5011432;28;21152;-45
2021/08/22 07:32:45;;;;;;;20.30;15.83;;;;;;;;;;5011542;28;20405;-46
2021/08/22 07:35:12;;;;;;;21.67;16.70;;;;;;;;;;5011524;28;20503;-47
2021/08/22 07:37:39;;;;;;;20.33;15.97;;;;;;;;;;5011536;28;20385;-45
2021/08/22 07:40:05;;;;;;;23.70;18.43;;;;;;;;;;5011028;28;20938;-46
2021/08/22 07:42:31;;;;;;;19.97;15.60;;;;;;;;;;5011443;28;20761;-44
2021/08/22 07:44:57;;;;;;;20.67;16.00;;;;;;;;;;5011278;28;20406;-45
2021/08/22 07:47:23;;;;;;;20.33;15.13;;;;;;;;;;5011336;28;20482;-46
2021/08/22 07:49:49;;;;;;;19.90;16.67;;;;;;;;;;5011062;28;20399;-46
2021/08/22 07:52:15;;;;;;;17.57;15.77;;;;;;;;;;5011337;28;20381;-46
2021/08/22 07:54:41;;;;;;;16.33;14.57;;;;;;;;;;5010978;28;20993;-45
2021/08/22 07:57:08;;;;;;;18.00;15.30;;;;;;;;;;5011315;28;20400;-44
2021/08/22 07:59:34;;;;;;;20.77;15.50;;;;;;;;;;5010975;28;20899;-47
2021/08/22 08:02:01;;;;;;;21.80;15.77;;;;;;;;;;5011445;28;20518;-45
2021/08/22 08:04:27;;;;;;;15.53;13.97;;;;;;;;;;5010985;28;20993;-44
2021/08/22 08:06:54;;;;;;;16.10;13.57;;;;;;;;;;5011118;28;20889;-45
2021/08/22 08:09:20;;;;;;;15.83;13.90;;;;;;;;;;5010722;28;20944;-46
2021/08/22 08:11:47;;;;;;;14.07;12.50;;;;;;;;;;5011068;28;20409;-47
2021/08/22 08:14:13;;;;;;;16.17;12.40;;;;;;;;;;5010934;28;20423;-44
2021/08/22 08:16:40;;;;;;;11.73;10.63;;;;;;;;;;5011075;28;20487;-45
2021/08/22 08:19:06;;;;;;;11.80;10.67;;;;;;;;;;5010848;28;20449;-47
2021/08/22 08:21:32;;;;;;;12.73;11.43;;;;;;;;;;5010807;28;20410;-46
2021/08/22 08:23:58;;;;;;;11.03;9.93;;;;;;;;;;5010523;28;20513;-45
2021/08/22 08:26:24;;;;;;;10.90;9.80;;;;;;;;;;5010138;28;20726;-45
2021/08/22 08:28:50;;;;;;;9.53;8.60;;;;;;;;;;5010970;28;20469;-46
2021/08/22 08:31:17;;;;;;;9.60;8.70;;;;;;;;;;5014882;28;20399;-44
2021/08/22 08:33:43;;;;;;;10.20;9.23;;;;;;;;;;5014948;28;20406;-48
2021/08/22 08:36:10;;;;;;;9.87;8.77;;;;;;;;;;5014851;28;20901;-47
2021/08/22 08:38:36;;;;;;;12.83;10.27;;;;;;;;;;5014701;28;20465;-44
2021/08/22 08:41:02;;;;;;;10.90;9.90;;;;;;;;;;5014821;28;20419;-45
2021/08/22 08:43:28;;;;;;;12.03;9.00;;;;;;;;;;5014961;28;20497;-45
2021/08/22 08:46:06;;;;;;;9.33;8.00;;;;;;;;;;5014957;28;20419;-45
2021/08/22 08:48:51;;;;;;;11.97;7.90;;;;;;;;;;5014612;28;20948;-44
2021/08/22 08:51:32;;;;;;;11.27;8.50;;;;;;;;;;5014626;28;20434;-45
2021/08/22 08:54:28;;;;;;;10.00;7.80;;;;;;;;;;5014071;28;20522;-45
2021/08/22 08:56:55;;;;;;;8.10;7.30;;;;;;;;;;4927049;28;20419;-45
2021/08/22 08:59:21;;;;;;;7.60;6.90;;;;;;;;;;5014211;28;20424;-46
2021/08/22 09:01:47;;;;;;;9.40;8.57;;;;;;;;;;5014283;28;20443;-45
2021/08/22 09:04:14;;;;;;;8.23;7.50;;;;;;;;;;5014217;28;20422;-46
2021/08/22 09:06:59;;;;;;;8.40;7.13;;;;;;;;;;5014107;28;20509;-46
2021/08/22 09:09:44;;;;;;;8.03;6.70;;;;;;;;;;5013719;28;20953;-45
2021/08/22 09:12:28;;;;;;;8.20;7.40;;;;;;;;;;5014166;28;20403;-45
2021/08/22 09:15:13;;;;;;;5.60;5.20;;;;;;;;;;5015668;28;20843;-44
2021/08/22 09:17:58;;;;;;;6.60;5.80;;;;;;;;;;5014359;28;20392;-45
2021/08/22 09:20:30;;;;;;;5.67;5.17;;;;;;;;;;5013695;28;20406;-45
2021/08/22 09:23:02;;;;;;;6.17;5.43;;;;;;;;;;5013724;28;20403;-44
2021/08/22 09:25:46;;;;;;;5.43;5.00;;;;;;;;;;5013775;28;20518;-44
2021/08/22 09:28:32;;;;;;;5.77;5.30;;;;;;;;;;5013271;28;20961;-44
2021/08/22 09:31:04;;;;;;;8.00;7.03;;;;;;;;;;5013863;28;20411;-46
2021/08/22 09:33:48;;;;;;;8.80;6.17;;;;;;;;;;5013500;28;20387;-44
2021/08/22 09:36:34;;;;;;;6.67;5.77;;;;;;;;;;5013676;28;20398;-46
2021/08/22 09:39:19;;;;;;;7.43;6.50;;;;;;;;;;5013391;28;20831;-45
2021/08/22 09:42:03;;;;;;;7.20;6.50;;;;;;;;;;5012908;28;20413;-45
2021/08/22 09:44:49;;;;;;;7.03;6.37;;;;;;;;;;5013388;28;20914;-45
2021/08/22 09:47:21;;;;;;;7.50;6.73;;;;;;;;;;5013425;28;20399;-46
2021/08/22 09:50:07;;;;;;;7.63;6.80;;;;;;;;;;5013389;28;20403;-45
2021/08/22 09:52:39;;;;;;;12.60;7.60;;;;;;;;;;5013301;28;20398;-44
2021/08/22 09:55:25;;;;;;;11.77;7.60;;;;;;;;;;5013039;28;20980;-44
2021/08/22 09:58:10;;;;;;;8.20;7.40;;;;;;;;;;5013177;28;20400;-46
2021/08/22 10:00:42;;;;;;;8.90;8.00;;;;;;;;;;5013073;28;20431;-44
2021/08/22 10:03:10;;;;;;;10.00;7.97;;;;;;;;;;5013232;28;20402;-44
2021/08/22 10:05:55;;;;;;;9.37;8.20;;;;;;;;;;5012787;28;20506;-45
2021/08/22 10:08:21;;;;;;;9.07;7.03;;;;;;;;;;5012932;28;20512;-45
2021/08/22 10:10:54;;;;;;;8.37;7.67;;;;;;;;;;5012852;28;20399;-45
2021/08/22 10:13:20;;;;;;;7.93;7.23;;;;;;;;;;5012841;28;20402;-44
2021/08/22 10:15:46;;;;;;;8.60;7.70;;;;;;;;;;5012727;28;20450;-45
2021/08/22 10:18:21;;;;;;;8.37;7.57;;;;;;;;;;5012346;28;20412;-45
2021/08/22 10:20:47;;;;;;;7.57;6.87;;;;;;;;;;5012669;28;20405;-46
2021/08/22 10:23:38;;;;;;;7.77;7.07;;;;;;;;;;5012911;28;20438;-45
2021/08/22 10:26:06;;;;;;;8.30;7.50;;;;;;;;;;5012753;28;20465;-45
2021/08/22 10:28:49;;;;;;;7.53;6.93;;;;;;;;;;5012561;28;20458;-44
2021/08/22 10:31:15;;;;;;;8.47;7.70;;;;;;;;;;5012795;28;20404;-44
2021/08/22 10:34:04;;;;;;;10.77;8.33;;;;;;;;;;5012867;28;20460;-44
2021/08/22 10:36:30;;;;;;;23.07;8.53;;;;;;;;;;5012688;28;20479;-45
2021/08/22 10:39:15;;;;;;;13.07;9.07;;;;;;;;;;5012612;28;20425;-44
2021/08/22 10:41:41;;;;;;;18.70;11.80;;;;;;;;;;5012431;28;20479;-45
2021/08/22 10:44:27;;;;;;;18.57;12.20;;;;;;;;;;5012421;28;20929;-45
2021/08/22 10:46:53;;;;;;;15.40;13.10;;;;;;;;;;5011552;28;20422;-44
2021/08/22 10:49:39;;;;;;;21.40;14.60;;;;;;;;;;5011938;28;20626;-45
2021/08/22 10:52:22;;;;;;;19.13;14.70;;;;;;;;;;5011777;28;20407;-45
2021/08/22 10:55:10;;;;;;;16.57;12.47;;;;;;;;;;5011564;28;20961;-47
2021/08/22 10:57:45;;;;;;;10.63;9.70;;;;;;;;;;4999332;28;20418;-46
2021/08/22 11:00:23;;;;;;;10.90;9.70;;;;;;;;;;5011822;28;20996;-45
2021/08/22 11:03:00;;;;;;;10.37;9.17;;;;;;;;;;5013073;28;20405;-44
2021/08/22 11:05:34;;;;;;;10.37;9.23;;;;;;;;;;5011740;28;20961;-44
2021/08/22 11:08:16;;;;;;;10.00;9.00;;;;;;;;;;5012388;28;20451;-44
2021/08/22 11:11:00;;;;;;;10.27;9.27;;;;;;;;;;5011763;28;20399;-45
2021/08/22 11:13:29;;;;;;;9.90;8.90;;;;;;;;;;5011149;28;20456;-46
2021/08/22 11:16:02;;;;;;;7.83;7.17;;;;;;;;;;5067699;28;20557;-45
2021/08/22 11:18:28;;;;;;;7.33;6.53;;;;;;;;;;5067768;28;20834;-47
2021/08/22 11:20:54;;;;;;;7.43;6.77;;;;;;;;;;5067409;28;20470;-48
2021/08/22 11:23:24;;;;;;;7.10;5.80;;;;;;;;;;5067987;28;20394;-45
2021/08/22 11:25:58;;;;;;;8.77;5.43;;;;;;;;;;5067737;28;20413;-45
2021/08/22 11:28:24;;;;;;;5.37;4.87;;;;;;;;;;5067832;28;20388;-44
2021/08/22 11:30:50;;;;;;;5.80;5.30;;;;;;;;;;5067765;28;20812;-46
2021/08/22 11:33:17;;;;;;;5.97;5.47;;;;;;;;;;5067619;28;20396;-45
2021/08/22 11:35:46;;;;;;;6.13;5.53;;;;;;;;;;5067565;28;20456;-46
2021/08/22 11:38:13;;;;;;;5.97;5.47;;;;;;;;;;5067623;28;20972;-45
2021/08/22 11:40:39;;;;;;;6.80;6.07;;;;;;;;;;5067513;28;20397;-45
2021/08/22 11:43:06;;;;;;;5.90;5.27;;;;;;;;;;5067707;28;20396;-45
2021/08/22 11:45:37;;;;;;;6.93;6.13;;;;;;;;;;5067352;28;20451;-45
2021/08/22 11:48:04;;;;;;;7.70;5.50;;;;;;;;;;5067667;28;20466;-49
2021/08/22 11:50:31;;;;;;;10.83;5.47;;;;;;;;;;5067137;28;20752;-48
2021/08/22 11:52:58;;;;;;;6.47;5.87;;;;;;;;;;5066011;28;20466;-48
2021/08/22 11:55:26;;;;;;;5.50;5.00;;;;;;;;;;5069881;22;20485;-47
2021/08/22 11:58:06;;;;;;;6.03;5.20;;;;;;;;;;5046366;28;20393;-47
2021/08/22 12:00:33;;;;;;;5.60;5.07;;;;;;;;;;5047080;28;20423;-47
2021/08/22 12:03:03;;;;;;;6.90;5.00;;;;;;;;;;5047385;28;20878;-47
2021/08/22 12:05:32;;;;;;;5.30;4.63;;;;;;;;;;5047144;28;20469;-47
2021/08/22 12:08:24;;;;;;;5.80;5.30;;;;;;;;;;5047111;28;20400;-47
2021/08/22 12:11:05;;;;;;;5.70;5.20;;;;;;;;;;5045919;28;20448;-47
2021/08/22 12:13:31;;;;;;;5.70;5.10;;;;;;;;;;5047311;28;20393;-47
2021/08/22 12:15:59;;;;;;;5.40;4.90;;;;;;;;;;5047019;28;20812;-49
2021/08/22 12:18:29;;;;;;;5.27;4.70;;;;;;;;;;5046690;28;20493;-48
2021/08/22 12:21:15;;;;;;;6.73;4.93;;;;;;;;;;5047000;28;20794;-48
2021/08/22 12:23:47;;;;;;;7.03;5.10;;;;;;;;;;5046652;28;20429;-48
2021/08/22 12:26:20;;;;;;;5.20;4.80;;;;;;;;;;5039992;28;20425;-47
2021/08/22 12:28:46;;;;;;;5.30;4.80;;;;;;;;;;5033257;28;20398;-47
2021/08/22 12:31:12;;;;;;;5.47;4.17;;;;;;;;;;5033416;28;20789;-48
2021/08/22 12:33:39;;;;;;;5.50;4.20;;;;;;;;;;5033095;28;20408;-46
2021/08/22 12:36:07;;;;;;;4.97;4.57;;;;;;;;;;5033381;28;20450;-48
2021/08/22 12:38:37;;;;;;;7.00;4.87;;;;;;;;;;5033156;28;20409;-48
2021/08/22 12:41:23;;;;;;;4.87;4.37;;;;;;;;;;5033278;28;20485;-48
2021/08/22 12:43:49;;;;;;;5.20;3.57;;;;;;;;;;5033082;28;21089;-48
2021/08/22 12:46:16;;;;;;;3.90;3.50;;;;;;;;;;5032868;28;20489;-48
2021/08/22 12:48:43;;;;;;;4.77;3.50;;;;;;;;;;5032858;28;20398;-48
2021/08/22 12:51:09;;;;;;;3.83;3.53;;;;;;;;;;5033106;28;20870;-47
2021/08/22 12:53:35;;;;;;;3.50;3.00;;;;;;;;;;5032879;28;20417;-48
2021/08/22 12:56:01;;;;;;;3.77;3.20;;;;;;;;;;5032934;28;20949;-48
2021/08/22 12:58:28;;;;;;;8.87;4.00;;;;;;;;;;5032648;28;20501;-47
2021/08/22 13:00:53;;;;;;;4.53;3.17;;;;;;;;;;5032822;28;20406;-47
2021/08/22 13:03:19;;;;;;;6.50;3.43;;;;;;;;;;5033060;28;20407;-48
2021/08/22 13:05:47;;;;;;;3.33;3.07;;;;;;;;;;5032624;28;20458;-48
2021/08/22 13:08:13;;;;;;;4.30;3.33;;;;;;;;;;5032736;28;20402;-48
2021/08/22 13:10:39;;;;;;;3.80;3.03;;;;;;;;;;5032500;28;20409;-48
2021/08/22 13:13:12;;;;;;;6.20;3.00;;;;;;;;;;5032783;28;20483;-48
2021/08/22 13:15:38;;;;;;;4.87;3.07;;;;;;;;;;5032535;28;20898;-48
2021/08/22 13:18:05;;;;;;;5.77;2.83;;;;;;;;;;5032745;28;20786;-48
2021/08/22 13:20:31;;;;;;;3.90;3.40;;;;;;;;;;5032661;28;20398;-48
2021/08/22 13:22:58;;;;;;;4.90;3.63;;;;;;;;;;5032644;28;20410;-48
2021/08/22 13:25:24;;;;;;;8.50;3.20;;;;;;;;;;5032264;28;20539;-48
2021/08/22 13:27:50;;;;;;;7.73;3.90;;;;;;;;;;5032468;28;20460;-48
2021/08/22 13:30:16;;;;;;;3.60;3.30;;;;;;;;;;5032097;28;20394;-48
2021/08/22 13:32:43;;;;;;;4.67;3.40;;;;;;;;;;5032394;28;20772;-49
2021/08/22 13:35:09;;;;;;;4.50;3.23;;;;;;;;;;5032082;28;20452;-48
2021/08/22 13:37:34;;;;;;;4.53;3.47;;;;;;;;;;5031290;28;20589;-48
2021/08/22 13:40:00;;;;;;;5.30;3.73;;;;;;;;;;5031942;28;20473;-48
2021/08/22 13:42:28;;;;;;;6.00;3.60;;;;;;;;;;5032186;28;20402;-48
2021/08/22 13:44:54;;;;;;;4.00;3.53;;;;;;;;;;5031896;28;20464;-48
2021/08/22 13:47:20;;;;;;;4.70;3.33;;;;;;;;;;5032349;28;20398;-47
2021/08/22 13:49:45;;;;;;;4.00;3.70;;;;;;;;;;5031705;28;20477;-48
2021/08/22 13:52:12;;;;;;;4.83;3.33;;;;;;;;;;5032002;28;20414;-47
2021/08/22 13:54:39;;;;;;;6.77;4.30;;;;;;;;;;5031681;28;20481;-48
2021/08/22 13:57:06;;;;;;;3.70;3.20;;;;;;;;;;5031884;28;20434;-48
2021/08/22 13:59:32;;;;;;;4.27;3.30;;;;;;;;;;5031693;28;20429;-48
2021/08/22 14:01:58;;;;;;;6.70;4.00;;;;;;;;;;5031774;28;21121;-47
2021/08/22 14:04:25;;;;;;;4.30;3.63;;;;;;;;;;5031777;28;20465;-47
2021/08/22 14:06:50;;;;;;;4.57;3.90;;;;;;;;;;5032050;28;20409;-47
2021/08/22 14:09:16;;;;;;;4.10;3.40;;;;;;;;;;5031709;28;20406;-47
2021/08/22 14:11:44;;;;;;;4.43;3.40;;;;;;;;;;5031669;28;20399;-47
2021/08/22 14:14:11;;;;;;;7.87;3.90;;;;;;;;;;5031868;28;20884;-48
2021/08/22 14:16:37;;;;;;;9.40;3.57;;;;;;;;;;5031768;28;20489;-48
2021/08/22 14:19:03;;;;;;;7.70;3.80;;;;;;;;;;5031669;28;20555;-48
2021/08/22 14:21:29;;;;;;;5.40;3.50;;;;;;;;;;5031818;28;20418;-48
2021/08/22 14:23:55;;;;;;;4.03;3.70;;;;;;;;;;5031306;28;20402;-47
2021/08/22 14:26:21;;;;;;;6.47;3.80;;;;;;;;;;5031348;28;20486;-47
2021/08/22 14:28:47;;;;;;;4.73;3.70;;;;;;;;;;5031328;28;20881;-47
2021/08/22 14:31:14;;;;;;;5.67;4.20;;;;;;;;;;5031058;28;20402;-48
2021/08/22 14:33:40;;;;;;;5.90;4.07;;;;;;;;;;5031311;28;20739;-48
2021/08/22 14:36:07;;;;;;;4.20;3.77;;;;;;;;;;5031073;28;20480;-48
2021/08/22 14:38:33;;;;;;;4.70;3.83;;;;;;;;;;5030001;28;20402;-48